createdAt,value
2023-09-26T00:00:20.841Z,138.15
2023-09-26T00:02:47.967Z,137.43
2023-09-26T00:05:14.982Z,137.60
2023-09-26T00:07:43.790Z,135.90
2023-09-26T00:10:14.504Z,137.20
2023-09-26T00:12:41.718Z,137.43
2023-09-26T00:15:09.480Z,135.45
2023-09-26T00:17:36.561Z,135.55
2023-09-26T00:20:22.946Z,138.70
2023-09-26T00:22:51.222Z,136.00
2023-09-26T00:25:18.125Z,136.00
2023-09-26T00:27:45.342Z,138.55
2023-09-26T00:30:13.608Z,135.23
2023-09-26T00:32:40.890Z,136.70
2023-09-26T00:35:14.659Z,135.20
2023-09-26T00:37:42.441Z,135.38
2023-09-26T00:40:13.822Z,137.75
2023-09-26T00:42:40.911Z,135.73
2023-09-26T00:45:08.660Z,134.68
2023-09-26T00:47:36.637Z,135.68
2023-09-26T00:50:04.611Z,135.55
2023-09-26T00:52:31.901Z,137.50
2023-09-26T00:55:00.430Z,134.20
2023-09-26T00:57:28.939Z,135.52
2023-09-26T00:59:55.797Z,135.60
2023-09-26T01:02:23.302Z,135.02
2023-09-26T01:04:50.714Z,135.00
2023-09-26T01:07:17.608Z,137.57
2023-09-26T01:09:44.589Z,134.02
2023-09-26T01:12:12.362Z,134.52
2023-09-26T01:14:40.630Z,133.85
2023-09-26T01:17:07.788Z,135.50
2023-09-26T01:19:34.891Z,136.07
2023-09-26T01:22:01.966Z,134.68
2023-09-26T01:24:30.740Z,134.65
2023-09-26T01:26:58.013Z,135.82
2023-09-26T01:29:25.460Z,133.75
2023-09-26T01:31:52.558Z,129.48
2023-09-26T01:34:19.581Z,129.23
2023-09-26T01:36:46.513Z,133.02
2023-09-26T01:39:14.019Z,133.23
2023-09-26T01:41:42.373Z,134.70
2023-09-26T01:44:10.054Z,132.82
2023-09-26T01:46:37.132Z,132.20
2023-09-26T01:49:04.126Z,131.60
2023-09-26T01:51:31.017Z,128.70
2023-09-26T01:53:57.841Z,125.78
2023-09-26T01:56:25.651Z,126.68
2023-09-26T01:58:54.201Z,127.00
2023-09-26T02:01:21.365Z,129.88
2023-09-26T02:03:48.627Z,130.40
2023-09-26T02:06:15.607Z,128.98
2023-09-26T02:08:42.521Z,128.60
2023-09-26T02:11:09.457Z,129.43
2023-09-26T02:13:36.789Z,126.72
2023-09-26T02:16:11.174Z,128.30
2023-09-26T02:18:38.160Z,126.65
2023-09-26T02:21:05.214Z,125.95
2023-09-26T02:23:33.891Z,126.57
2023-09-26T02:26:00.785Z,126.80
2023-09-26T02:28:27.670Z,128.30
2023-09-26T02:30:54.828Z,125.55
2023-09-26T02:33:23.200Z,126.35
2023-09-26T02:35:50.329Z,126.32
2023-09-26T02:38:17.218Z,126.30
2023-09-26T02:40:44.754Z,127.75
2023-09-26T02:43:11.605Z,129.38
2023-09-26T02:45:38.637Z,127.47
2023-09-26T02:48:06.987Z,130.88
2023-09-26T02:50:35.250Z,128.57
2023-09-26T02:53:02.126Z,127.25
2023-09-26T02:55:29.127Z,131.70
2023-09-26T02:57:56.145Z,129.05
2023-09-26T03:00:23.140Z,132.93
2023-09-26T03:02:50.266Z,128.88
2023-09-26T03:05:18.196Z,133.48
2023-09-26T03:07:46.879Z,132.25
2023-09-26T03:10:15.431Z,128.57
2023-09-26T03:12:45.039Z,129.80
2023-09-26T03:15:12.490Z,129.68
2023-09-26T03:17:39.444Z,130.63
2023-09-26T03:20:09.926Z,128.98
2023-09-26T03:22:37.118Z,128.93
2023-09-26T03:25:07.073Z,131.57
2023-09-26T03:27:34.303Z,129.98
2023-09-26T03:30:01.319Z,130.57
2023-09-26T03:32:28.730Z,129.90
2023-09-26T03:34:55.799Z,130.32
2023-09-26T03:37:23.297Z,129.70
2023-09-26T03:39:50.376Z,131.02
2023-09-26T03:42:18.864Z,129.63
2023-09-26T03:44:45.729Z,130.07
2023-09-26T03:47:13.022Z,130.23
2023-09-26T03:49:39.854Z,130.57
2023-09-26T03:52:06.885Z,131.15
2023-09-26T03:54:35.444Z,133.27
2023-09-26T03:57:02.700Z,130.00
2023-09-26T03:59:30.985Z,130.10
2023-09-26T04:01:57.993Z,128.85
2023-09-26T04:04:25.117Z,129.32
2023-09-26T04:06:52.146Z,129.75
2023-09-26T04:09:19.156Z,133.77
2023-09-26T04:11:46.028Z,129.68
2023-09-26T04:14:13.136Z,130.52
2023-09-26T04:16:41.397Z,130.75
2023-09-26T04:19:10.092Z,129.35
2023-09-26T04:21:37.253Z,130.07
2023-09-26T04:24:05.749Z,130.02
2023-09-26T04:26:33.059Z,130.60
2023-09-26T04:29:00.651Z,133.10
2023-09-26T04:31:27.657Z,129.85
2023-09-26T04:33:56.426Z,129.32
2023-09-26T04:36:23.481Z,130.32
2023-09-26T04:38:50.718Z,129.20
2023-09-26T04:41:17.748Z,129.82
2023-09-26T04:43:44.658Z,130.02
2023-09-26T04:46:13.111Z,129.68
2023-09-26T04:48:40.428Z,128.77
2023-09-26T04:51:11.324Z,128.80
2023-09-26T04:53:38.222Z,96.93
2023-09-26T04:56:05.772Z,129.40
2023-09-26T04:58:33.851Z,129.43
2023-09-26T05:01:10.982Z,128.60
2023-09-26T05:03:38.019Z,127.05
2023-09-26T05:06:05.296Z,128.43
2023-09-26T05:08:33.604Z,128.88
2023-09-26T05:11:00.499Z,128.73
2023-09-26T05:13:27.398Z,127.97
2023-09-26T05:15:54.299Z,127.22
2023-09-26T05:18:23.367Z,127.88
2023-09-26T05:20:50.346Z,126.43
2023-09-26T05:23:17.264Z,126.63
2023-09-26T05:25:45.648Z,129.55
2023-09-26T05:28:12.597Z,124.78
2023-09-26T05:30:39.779Z,125.22
2023-09-26T05:33:06.830Z,126.63
2023-09-26T05:35:33.995Z,127.53
2023-09-26T05:38:01.052Z,127.65
2023-09-26T05:40:28.049Z,127.18
2023-09-26T05:42:56.472Z,129.23
2023-09-26T05:45:23.749Z,126.95
2023-09-26T05:47:50.757Z,128.00
2023-09-26T05:50:17.871Z,127.05
2023-09-26T05:52:44.967Z,124.97
2023-09-26T05:55:12.010Z,126.22
2023-09-26T05:57:39.612Z,123.57
2023-09-26T06:00:14.662Z,124.40
2023-09-26T06:02:41.886Z,127.03
2023-09-26T06:05:09.549Z,127.75
2023-09-26T06:07:36.840Z,135.60
2023-09-26T06:10:09.728Z,132.85
2023-09-26T06:12:37.594Z,133.90
2023-09-26T06:15:07.108Z,134.52
2023-09-26T06:17:35.712Z,136.77
2023-09-26T06:20:02.907Z,140.02
2023-09-26T06:22:29.837Z,136.60
2023-09-26T06:24:59.841Z,139.85
2023-09-26T06:27:27.688Z,140.68
2023-09-26T06:29:56.926Z,140.50
2023-09-26T06:32:24.943Z,142.48
2023-09-26T06:34:58.664Z,146.45
2023-09-26T06:37:25.722Z,144.45
2023-09-26T06:39:53.042Z,145.52
2023-09-26T06:42:20.086Z,146.77
2023-09-26T06:44:49.587Z,145.70
2023-09-26T06:47:17.612Z,145.70
2023-09-26T06:49:44.849Z,144.80
2023-09-26T06:52:13.126Z,144.30
2023-09-26T06:54:40.112Z,143.93
2023-09-26T06:57:09.254Z,144.07
2023-09-26T06:59:36.378Z,144.27
2023-09-26T07:02:04.061Z,144.35
2023-09-26T07:04:31.535Z,146.60
2023-09-26T07:07:00.664Z,144.93
2023-09-26T07:09:28.996Z,145.77
2023-09-26T07:11:56.577Z,146.80
2023-09-26T07:14:23.432Z,146.43
2023-09-26T07:16:52.065Z,147.20
2023-09-26T07:19:19.132Z,149.25
2023-09-26T07:21:46.121Z,150.82
2023-09-26T07:24:13.154Z,149.43
2023-09-26T07:26:41.562Z,149.57
2023-09-26T07:29:09.634Z,150.88
2023-09-26T07:31:37.039Z,149.20
2023-09-26T07:34:04.262Z,149.15
2023-09-26T07:36:33.332Z,149.80
2023-09-26T07:39:00.692Z,148.45
2023-09-26T07:41:27.854Z,151.52
2023-09-26T07:43:56.778Z,150.93
2023-09-26T07:46:23.932Z,148.80
2023-09-26T07:48:51.310Z,149.95
2023-09-26T07:51:18.319Z,148.80
2023-09-26T07:53:45.570Z,149.40
2023-09-26T07:56:12.698Z,148.70
2023-09-26T07:58:39.650Z,149.75
2023-09-26T08:01:09.763Z,148.60
2023-09-26T08:03:40.595Z,149.88
2023-09-26T08:06:08.360Z,149.40
2023-09-26T08:08:36.058Z,149.65
2023-09-26T08:11:09.943Z,150.38
2023-09-26T08:13:37.812Z,147.25
2023-09-26T08:16:05.970Z,148.30
2023-09-26T08:18:34.536Z,147.45
2023-09-26T08:21:01.438Z,149.65
2023-09-26T08:23:29.619Z,147.82
2023-09-26T08:25:57.555Z,147.98
2023-09-26T08:28:26.992Z,150.75
2023-09-26T08:30:58.244Z,148.30
2023-09-26T08:33:25.546Z,146.20
2023-09-26T08:35:56.899Z,146.75
2023-09-26T08:38:24.008Z,147.38
2023-09-26T08:40:57.678Z,146.77
2023-09-26T08:43:25.958Z,147.32
2023-09-26T08:45:54.009Z,148.13
2023-09-26T08:48:21.673Z,148.75
2023-09-26T08:50:51.173Z,149.32
2023-09-26T08:53:19.687Z,148.77
2023-09-26T08:55:52.958Z,148.02
2023-09-26T08:58:21.937Z,147.40
2023-09-26T09:00:49.213Z,145.93
2023-09-26T09:03:16.281Z,147.65
2023-09-26T09:05:43.679Z,147.55
2023-09-26T09:08:19.916Z,150.38
2023-09-26T09:10:53.721Z,149.70
2023-09-26T09:13:29.489Z,150.02
2023-09-26T09:16:13.865Z,151.07
2023-09-26T09:18:43.853Z,150.90
2023-09-26T09:21:29.097Z,150.90
2023-09-26T09:24:00.036Z,154.45
2023-09-26T09:26:31.414Z,151.68
2023-09-26T09:31:29.128Z,152.50
2023-09-26T09:33:57.692Z,153.13
2023-09-26T09:36:24.859Z,153.52
2023-09-26T09:38:52.053Z,154.07
2023-09-26T09:41:21.234Z,153.20
2023-09-26T09:43:48.234Z,154.27
2023-09-26T09:46:17.784Z,153.30
2023-09-26T09:48:46.359Z,152.10
2023-09-26T09:51:14.767Z,154.25
2023-09-26T09:53:55.377Z,156.70
2023-09-26T09:56:26.337Z,151.63
2023-09-26T09:59:03.342Z,152.00
2023-09-26T10:01:31.435Z,154.00
2023-09-26T10:03:59.229Z,153.85
2023-09-26T10:06:26.834Z,154.73
2023-09-26T10:08:56.137Z,154.35
2023-09-26T10:11:27.351Z,154.80
2023-09-26T10:16:21.639Z,153.45
2023-09-26T10:18:51.785Z,155.27
2023-09-26T10:21:26.875Z,154.30
2023-09-26T10:24:27.611Z,154.35
2023-09-26T10:29:33.760Z,154.55
2023-09-26T10:32:06.229Z,153.30
2023-09-26T10:34:53.119Z,153.45
2023-09-26T10:37:22.079Z,155.90
2023-09-26T10:39:49.549Z,153.73
2023-09-26T10:44:51.812Z,153.55
2023-09-26T10:47:20.967Z,153.27
2023-09-26T10:49:47.867Z,150.32
2023-09-26T10:52:15.503Z,154.38
2023-09-26T10:54:43.219Z,149.32
2023-09-26T10:57:22.178Z,152.45
2023-09-26T10:59:50.482Z,151.57
2023-09-26T11:02:17.656Z,152.73
2023-09-26T11:04:45.272Z,153.85
2023-09-26T11:07:13.220Z,155.82
2023-09-26T11:09:42.115Z,155.23
2023-09-26T11:12:09.475Z,155.10
2023-09-26T11:14:37.790Z,156.27
2023-09-26T11:17:07.729Z,156.20
2023-09-26T11:19:35.989Z,157.02
2023-09-26T11:22:03.079Z,155.70
2023-09-26T11:24:32.726Z,156.55
2023-09-26T11:27:04.086Z,156.15
2023-09-26T11:29:34.904Z,157.60
2023-09-26T11:32:05.462Z,155.85
2023-09-26T11:34:35.532Z,156.27
2023-09-26T11:37:02.467Z,159.45
2023-09-26T11:39:29.408Z,158.88
2023-09-26T11:42:04.169Z,159.57
2023-09-26T11:44:31.975Z,157.98
2023-09-26T11:46:59.824Z,158.50
2023-09-26T11:49:29.769Z,158.73
2023-09-26T11:51:57.116Z,155.75
2023-09-26T11:54:24.007Z,157.95
2023-09-26T11:56:53.519Z,155.48
2023-09-26T11:59:20.438Z,156.02
2023-09-26T12:01:47.630Z,156.15
2023-09-26T12:04:15.243Z,153.50
2023-09-26T12:06:43.784Z,151.60
2023-09-26T12:09:20.403Z,151.18
2023-09-26T12:11:47.484Z,153.30
2023-09-26T12:14:17.936Z,152.90
2023-09-26T12:16:51.829Z,154.52
2023-09-26T12:19:19.331Z,154.73
2023-09-26T12:21:48.222Z,155.68
2023-09-26T12:24:15.257Z,155.70
2023-09-26T12:26:42.791Z,155.63
2023-09-26T12:29:10.342Z,158.13
2023-09-26T12:31:37.389Z,156.70
2023-09-26T12:34:04.657Z,157.73
2023-09-26T12:36:31.569Z,157.52
2023-09-26T12:39:00.915Z,156.63
2023-09-26T12:41:28.110Z,157.07
2023-09-26T12:43:56.302Z,156.55
2023-09-26T12:46:23.468Z,156.00
2023-09-26T12:48:50.392Z,156.90
2023-09-26T12:51:17.606Z,157.77
2023-09-26T12:53:45.583Z,156.63
2023-09-26T12:56:13.787Z,156.93
2023-09-26T12:58:40.815Z,158.68
2023-09-26T13:01:07.723Z,160.52
2023-09-26T13:03:34.649Z,158.00
2023-09-26T13:06:01.922Z,156.75
2023-09-26T13:08:28.778Z,157.32
2023-09-26T13:10:55.753Z,159.75
2023-09-26T13:13:24.835Z,157.70
2023-09-26T13:15:52.345Z,157.85
2023-09-26T13:18:19.390Z,157.65
2023-09-26T13:20:46.751Z,159.60
2023-09-26T13:23:13.860Z,157.82
2023-09-26T13:25:40.916Z,157.10
2023-09-26T13:28:09.470Z,158.15
2023-09-26T13:30:39.992Z,158.00
2023-09-26T13:33:08.140Z,156.27
2023-09-26T13:35:35.169Z,158.07
2023-09-26T13:38:04.782Z,158.18
2023-09-26T13:40:32.396Z,159.00
2023-09-26T13:42:59.243Z,157.43
2023-09-26T13:45:26.292Z,157.93
2023-09-26T13:47:54.910Z,160.45
2023-09-26T13:50:21.822Z,159.93
2023-09-26T13:52:49.020Z,159.90
2023-09-26T13:55:16.087Z,158.77
2023-09-26T13:57:42.922Z,157.38
2023-09-26T14:00:10.996Z,157.18
2023-09-26T14:02:40.750Z,158.55
2023-09-26T14:07:40.485Z,161.85
2023-09-26T14:10:08.381Z,159.13
2023-09-26T14:12:35.537Z,158.73
2023-09-26T14:15:02.441Z,157.20
2023-09-26T14:17:29.506Z,158.88
2023-09-26T14:19:56.544Z,158.15
2023-09-26T14:22:25.148Z,158.65
2023-09-26T14:24:52.698Z,156.35
2023-09-26T14:27:19.718Z,157.48
2023-09-26T14:29:46.699Z,169.77
2023-09-26T14:32:13.649Z,158.60
2023-09-26T14:34:40.738Z,157.95
2023-09-26T14:37:07.866Z,158.23
2023-09-26T14:39:36.466Z,157.68
2023-09-26T14:42:03.368Z,159.20
2023-09-26T14:44:30.589Z,157.50
2023-09-26T14:46:57.584Z,157.70
2023-09-26T14:49:24.822Z,158.45
2023-09-26T14:51:51.729Z,159.75
2023-09-26T14:54:18.627Z,157.68
2023-09-26T14:56:47.832Z,159.93
2023-09-26T14:59:14.889Z,157.57
2023-09-26T15:01:41.906Z,159.23
2023-09-26T15:04:09.057Z,159.15
2023-09-26T15:06:37.108Z,158.68
2023-09-26T15:09:04.570Z,157.23
2023-09-26T15:11:31.595Z,158.13
2023-09-26T15:13:59.959Z,157.38
2023-09-26T15:16:27.059Z,159.23
2023-09-26T15:18:53.956Z,158.90
2023-09-26T15:21:20.808Z,157.23
2023-09-26T15:23:48.783Z,157.32
2023-09-26T15:26:15.629Z,158.57
2023-09-26T15:28:42.662Z,158.50
2023-09-26T15:31:11.607Z,157.65
2023-09-26T15:33:38.688Z,157.82
2023-09-26T15:36:05.893Z,159.48
2023-09-26T15:38:32.849Z,158.18
2023-09-26T15:41:15.333Z,159.25
2023-09-26T15:43:43.534Z,157.32
2023-09-26T15:46:11.895Z,158.73
2023-09-26T15:48:38.981Z,158.20
2023-09-26T15:51:12.156Z,158.05
2023-09-26T15:53:40.569Z,157.25
2023-09-26T15:56:07.635Z,157.40
2023-09-26T15:58:34.880Z,158.55
2023-09-26T16:01:01.784Z,157.88
2023-09-26T16:03:30.218Z,160.02
2023-09-26T16:05:57.161Z,159.40
2023-09-26T16:08:24.127Z,158.52
2023-09-26T16:10:51.077Z,159.77
2023-09-26T16:13:18.063Z,161.48
2023-09-26T16:15:48.177Z,157.23
2023-09-26T16:18:16.091Z,157.60
2023-09-26T16:20:44.554Z,157.45
2023-09-26T16:23:11.787Z,157.63
2023-09-26T16:25:40.466Z,158.45
2023-09-26T16:28:07.936Z,157.05
2023-09-26T16:30:34.982Z,158.88
2023-09-26T16:33:02.393Z,157.85
2023-09-26T16:35:30.306Z,161.70
2023-09-26T16:37:58.803Z,156.68
2023-09-26T16:40:25.875Z,159.77
2023-09-26T16:42:52.834Z,156.98
2023-09-26T16:45:19.790Z,158.27
2023-09-26T16:47:47.707Z,157.80
2023-09-26T16:50:15.194Z,158.98
2023-09-26T16:52:42.491Z,156.82
2023-09-26T16:55:11.238Z,157.77
2023-09-26T16:57:38.094Z,156.45
2023-09-26T17:00:06.175Z,158.30
2023-09-26T17:02:33.329Z,156.27
2023-09-26T17:05:00.826Z,157.77
2023-09-26T17:07:28.162Z,156.82
2023-09-26T17:09:56.814Z,157.00
2023-09-26T17:12:25.203Z,156.38
2023-09-26T17:14:52.210Z,156.23
2023-09-26T17:17:19.317Z,156.40
2023-09-26T17:19:46.325Z,155.48
2023-09-26T17:22:13.414Z,154.82
2023-09-26T17:24:40.283Z,156.82
2023-09-26T17:27:07.314Z,154.13
2023-09-26T17:29:35.662Z,155.68
2023-09-26T17:32:02.713Z,154.32
2023-09-26T17:34:29.683Z,157.00
2023-09-26T17:36:56.510Z,153.85
2023-09-26T17:39:24.942Z,154.63
2023-09-26T17:41:51.911Z,154.45
2023-09-26T17:44:18.920Z,153.90
2023-09-26T17:46:48.320Z,154.80
2023-09-26T17:49:15.380Z,153.82
2023-09-26T17:51:42.261Z,153.10
2023-09-26T17:54:09.258Z,153.82
2023-09-26T17:56:36.278Z,152.07
2023-09-26T17:59:03.693Z,156.55
2023-09-26T18:01:30.899Z,151.95
2023-09-26T18:03:59.222Z,153.13
2023-09-26T18:06:28.317Z,155.05
2023-09-26T18:08:58.258Z,153.15
2023-09-26T18:11:25.334Z,157.38
2023-09-26T18:13:52.570Z,152.75
2023-09-26T18:16:19.859Z,151.82
2023-09-26T18:18:46.781Z,152.30
2023-09-26T18:21:15.258Z,153.63
2023-09-26T18:23:42.196Z,152.02
2023-09-26T18:26:09.132Z,151.70
2023-09-26T18:28:36.108Z,151.85
2023-09-26T18:31:05.853Z,150.57
2023-09-26T18:33:33.271Z,150.85
2023-09-26T18:36:05.343Z,151.27
2023-09-26T18:38:35.811Z,152.63
2023-09-26T18:41:02.842Z,151.13
2023-09-26T18:43:29.837Z,149.80
2023-09-26T18:45:58.157Z,149.35
2023-09-26T18:48:25.561Z,150.05
2023-09-26T18:50:52.833Z,150.70
2023-09-26T18:53:20.115Z,148.77
2023-09-26T18:55:48.656Z,150.23
2023-09-26T18:58:16.298Z,148.98
2023-09-26T19:00:43.355Z,142.23
2023-09-26T19:05:38.396Z,149.30
2023-09-26T19:08:06.235Z,149.82
2023-09-26T19:10:33.349Z,149.45
2023-09-26T19:13:03.892Z,147.35
2023-09-26T19:15:31.315Z,148.18
2023-09-26T19:17:58.314Z,147.52
2023-09-26T19:20:26.116Z,146.93
2023-09-26T19:22:53.161Z,148.68
2023-09-26T19:25:20.515Z,146.32
2023-09-26T19:27:47.430Z,146.35
2023-09-26T19:30:16.002Z,147.20
2023-09-26T19:32:43.012Z,147.65
2023-09-26T19:35:10.633Z,147.75
2023-09-26T19:37:37.637Z,147.90
2023-09-26T19:40:05.528Z,148.25
2023-09-26T19:42:32.594Z,148.25
2023-09-26T19:44:59.492Z,149.93
2023-09-26T19:47:27.956Z,146.63
2023-09-26T19:49:55.618Z,149.68
2023-09-26T19:52:22.650Z,147.57
2023-09-26T19:54:49.593Z,147.95
2023-09-26T19:57:16.457Z,146.70
2023-09-26T19:59:44.515Z,147.30
2023-09-26T20:02:11.793Z,147.43
2023-09-26T20:04:40.299Z,146.98
2023-09-26T20:07:07.324Z,148.00
2023-09-26T20:09:34.416Z,146.93
2023-09-26T20:12:01.291Z,146.88
2023-09-26T20:14:28.186Z,146.43
2023-09-26T20:16:55.164Z,146.52
2023-09-26T20:19:22.126Z,146.18
2023-09-26T20:21:50.332Z,146.73
2023-09-26T20:24:17.777Z,146.07
2023-09-26T20:26:44.757Z,147.27
2023-09-26T20:29:11.679Z,147.00
2023-09-26T20:31:39.064Z,146.30
2023-09-26T20:34:06.870Z,147.73
2023-09-26T20:36:34.878Z,146.48
2023-09-26T20:39:03.559Z,147.40
2023-09-26T20:41:32.950Z,145.80
2023-09-26T20:44:00.216Z,146.57
2023-09-26T20:46:27.137Z,147.90
2023-09-26T20:48:54.810Z,145.55
2023-09-26T20:51:24.999Z,145.25
2023-09-26T20:53:53.122Z,145.82
2023-09-26T20:56:22.197Z,146.60
2023-09-26T20:58:49.095Z,144.68
2023-09-26T21:01:16.310Z,145.60
2023-09-26T21:03:43.359Z,144.85
2023-09-26T21:06:11.341Z,144.52
2023-09-26T21:08:38.799Z,146.55
2023-09-26T21:11:05.676Z,154.23
2023-09-26T21:13:34.096Z,144.15
2023-09-26T21:16:13.907Z,145.63
2023-09-26T21:18:42.244Z,141.10
2023-09-26T21:21:09.386Z,138.77
2023-09-26T21:23:36.319Z,142.25
2023-09-26T21:26:03.672Z,141.95
2023-09-26T21:28:33.961Z,143.20
2023-09-26T21:31:00.866Z,145.25
2023-09-26T21:33:27.777Z,141.98
2023-09-26T21:35:55.460Z,139.90
2023-09-26T21:38:23.136Z,138.18
2023-09-26T21:40:50.772Z,138.32
2023-09-26T21:43:17.968Z,138.88
2023-09-26T21:45:46.381Z,138.85
2023-09-26T21:48:13.521Z,140.27
2023-09-26T21:50:40.517Z,139.98
2023-09-26T21:53:07.463Z,140.40
2023-09-26T21:55:36.311Z,140.57
2023-09-26T21:58:04.283Z,140.85
2023-09-26T22:00:31.446Z,141.27
2023-09-26T22:03:01.708Z,146.40
2023-09-26T22:05:30.346Z,142.80
2023-09-26T22:07:58.616Z,143.00
2023-09-26T22:10:26.801Z,143.13
2023-09-26T22:12:54.062Z,142.55
2023-09-26T22:15:21.625Z,143.18
2023-09-26T22:17:48.636Z,142.43
2023-09-26T22:20:18.426Z,145.40
2023-09-26T22:22:46.347Z,142.27
2023-09-26T22:25:14.569Z,142.80
2023-09-26T22:27:42.294Z,144.23
2023-09-26T22:30:10.905Z,140.90
2023-09-26T22:32:38.454Z,143.07
2023-09-26T22:35:06.739Z,143.93
2023-09-26T22:37:35.973Z,141.93
2023-09-26T22:40:03.549Z,143.05
2023-09-26T22:42:30.549Z,142.90
2023-09-26T22:44:57.658Z,141.43
2023-09-26T22:47:25.305Z,142.25
2023-09-26T22:49:52.471Z,143.43
2023-09-26T22:52:20.198Z,143.20
2023-09-26T22:54:48.658Z,142.80
2023-09-26T22:57:15.706Z,142.60
2023-09-26T22:59:42.931Z,140.43
2023-09-26T23:02:09.954Z,143.57
2023-09-26T23:04:37.217Z,141.15
2023-09-26T23:07:04.384Z,141.70
2023-09-26T23:09:31.262Z,144.65
2023-09-26T23:11:59.556Z,141.73
2023-09-26T23:14:26.621Z,143.48
2023-09-26T23:16:54.031Z,142.27
2023-09-26T23:19:20.958Z,141.65
2023-09-26T23:21:47.908Z,141.63
2023-09-26T23:24:19.018Z,142.25
2023-09-26T23:26:46.219Z,141.13
2023-09-26T23:29:14.665Z,138.43
2023-09-26T23:31:42.221Z,139.88
2023-09-26T23:34:10.171Z,139.65
2023-09-26T23:36:37.106Z,143.23
2023-09-26T23:39:04.473Z,140.93
2023-09-26T23:41:31.400Z,140.02
2023-09-26T23:43:59.662Z,140.45
2023-09-26T23:46:29.354Z,140.63
2023-09-26T23:48:56.775Z,139.82
2023-09-26T23:51:23.672Z,140.43
2023-09-26T23:53:50.564Z,140.57
2023-09-26T23:56:17.643Z,139.88
2023-09-26T23:58:45.101Z,139.48
